createdAt,value
2023-02-16T00:01:26.361Z,75.43
2023-02-16T00:03:56.827Z,89.53
2023-02-16T00:06:25.305Z,69.23
2023-02-16T00:08:55.246Z,76.63
2023-02-16T00:11:46.382Z,78.17
2023-02-16T00:14:15.506Z,74.70
2023-02-16T00:16:43.552Z,81.33
2023-02-16T00:19:21.007Z,79.23
2023-02-16T00:21:49.676Z,81.47
2023-02-16T00:24:17.892Z,99.73
2023-02-16T00:26:47.478Z,95.23
2023-02-16T00:29:21.023Z,93.43
2023-02-16T00:31:49.423Z,90.60
2023-02-16T00:34:31.610Z,93.13
2023-02-16T00:37:01.349Z,78.70
2023-02-16T00:39:32.065Z,90.57
2023-02-16T00:42:02.879Z,109.87
2023-02-16T00:44:36.820Z,148.90
2023-02-16T00:47:12.043Z,250.20
2023-02-16T00:49:41.304Z,499.73
2023-02-16T00:52:33.285Z,394.70
2023-02-16T00:55:02.674Z,178.03
2023-02-16T00:57:34.394Z,175.87
2023-02-16T01:00:07.198Z,109.23
2023-02-16T01:02:35.196Z,144.87
2023-02-16T01:05:04.617Z,325.73
2023-02-16T01:07:50.125Z,78.23
2023-02-16T01:10:50.827Z,168.90
2023-02-16T01:13:19.228Z,94.30
2023-02-16T01:15:47.294Z,513.43
2023-02-16T01:18:17.296Z,107.00
2023-02-16T01:20:47.283Z,240.37
2023-02-16T01:23:15.303Z,136.43
2023-02-16T01:25:43.480Z,160.20
2023-02-16T01:28:20.285Z,335.10
2023-02-16T01:30:48.350Z,207.77
2023-02-16T01:33:16.534Z,367.63
2023-02-16T01:35:46.242Z,172.30
2023-02-16T01:38:18.908Z,80.70
2023-02-16T01:40:55.349Z,73.20
2023-02-16T01:43:27.084Z,414.10
2023-02-16T01:46:02.194Z,136.10
2023-02-16T01:48:32.698Z,325.53
2023-02-16T01:51:07.952Z,68.53
2023-02-16T01:53:41.042Z,183.80
2023-02-16T01:56:21.151Z,187.30
2023-02-16T01:58:53.904Z,232.73
2023-02-16T02:01:44.237Z,86.87
2023-02-16T02:04:43.784Z,245.40
2023-02-16T02:07:20.654Z,286.47
2023-02-16T02:09:56.519Z,382.97
2023-02-16T02:12:31.635Z,300.67
2023-02-16T02:14:59.611Z,404.03
2023-02-16T02:17:28.302Z,194.47
2023-02-16T02:20:03.444Z,269.37
2023-02-16T02:23:22.041Z,335.40
2023-02-16T02:26:43.588Z,149.77
2023-02-16T02:29:30.673Z,369.57
2023-02-16T02:32:09.547Z,490.27
2023-02-16T02:34:49.493Z,380.63
2023-02-16T02:37:25.486Z,200.10
2023-02-16T02:40:01.796Z,253.90
2023-02-16T02:42:38.269Z,177.23
2023-02-16T02:45:14.704Z,219.43
2023-02-16T02:47:45.985Z,134.57
2023-02-16T02:50:36.493Z,302.40
2023-02-16T02:53:08.063Z,111.97
2023-02-16T02:55:57.722Z,302.57
2023-02-16T02:58:46.176Z,109.73
2023-02-16T03:01:19.660Z,263.30
2023-02-16T03:03:52.190Z,114.87
2023-02-16T03:06:24.700Z,194.47
2023-02-16T03:09:01.852Z,253.53
2023-02-16T03:11:48.367Z,223.33
2023-02-16T03:14:20.113Z,200.27
2023-02-16T03:17:10.429Z,280.43
2023-02-16T03:19:58.520Z,396.97
2023-02-16T03:22:44.144Z,268.90
2023-02-16T03:25:29.896Z,158.30
2023-02-16T03:28:17.417Z,185.90
2023-02-16T03:30:47.765Z,253.67
2023-02-16T03:33:17.330Z,328.03
2023-02-16T03:35:46.404Z,75.23
2023-02-16T03:38:14.768Z,231.73
2023-02-16T03:40:45.146Z,180.00
2023-02-16T03:43:13.054Z,210.97
2023-02-16T03:45:44.265Z,81.47
2023-02-16T03:48:12.958Z,135.23
2023-02-16T03:50:42.210Z,308.63
2023-02-16T03:53:10.190Z,107.17
2023-02-16T03:55:39.717Z,183.13
2023-02-16T03:58:09.555Z,224.90
2023-02-16T04:00:38.736Z,155.83
2023-02-16T04:03:09.295Z,189.90
2023-02-16T04:05:37.935Z,184.93
2023-02-16T04:08:07.921Z,230.17
2023-02-16T04:10:36.204Z,239.47
2023-02-16T04:13:03.405Z,104.70
2023-02-16T04:15:31.949Z,57.30
2023-02-16T04:18:00.168Z,237.37
2023-02-16T04:20:30.130Z,190.67
2023-02-16T04:22:58.878Z,185.40
2023-02-16T04:25:28.871Z,180.30
2023-02-16T04:27:57.200Z,90.30
2023-02-16T04:30:27.757Z,146.37
2023-02-16T04:32:56.746Z,236.70
2023-02-16T04:35:24.671Z,135.63
2023-02-16T04:37:52.809Z,101.90
2023-02-16T04:40:21.075Z,157.50
2023-02-16T04:42:50.381Z,222.60
2023-02-16T04:45:18.440Z,157.40
2023-02-16T04:47:46.472Z,228.37
2023-02-16T04:50:14.569Z,165.40
2023-02-16T04:52:42.611Z,249.87
2023-02-16T04:55:11.580Z,205.00
2023-02-16T04:57:39.810Z,146.60
2023-02-16T05:00:12.638Z,121.23
2023-02-16T05:02:40.539Z,170.73
2023-02-16T05:05:09.373Z,162.03
2023-02-16T05:07:37.553Z,126.80
2023-02-16T05:10:06.852Z,187.93
2023-02-16T05:12:52.265Z,101.00
2023-02-16T05:15:21.964Z,177.67
2023-02-16T05:17:50.056Z,214.63
2023-02-16T05:20:17.999Z,133.10
2023-02-16T05:22:46.357Z,134.60
2023-02-16T05:25:14.317Z,206.93
2023-02-16T05:27:42.301Z,259.40
2023-02-16T05:30:11.538Z,315.93
2023-02-16T05:32:40.908Z,216.70
2023-02-16T05:35:09.588Z,406.00
2023-02-16T05:37:37.538Z,84.57
2023-02-16T05:40:06.142Z,166.67
2023-02-16T05:42:34.081Z,201.03
2023-02-16T05:45:02.330Z,188.93
2023-02-16T05:47:30.419Z,161.13
2023-02-16T05:49:59.657Z,229.47
2023-02-16T05:52:27.827Z,417.33
2023-02-16T05:54:55.876Z,297.50
2023-02-16T05:57:23.792Z,230.97
2023-02-16T05:59:51.707Z,387.60
2023-02-16T06:02:19.761Z,212.17
2023-02-16T06:04:47.799Z,106.43
2023-02-16T06:07:17.090Z,103.27
2023-02-16T06:09:45.003Z,109.77
2023-02-16T06:12:13.002Z,246.43
2023-02-16T06:14:40.887Z,226.00
2023-02-16T06:17:08.743Z,161.53
2023-02-16T06:19:36.640Z,253.80
2023-02-16T06:22:04.568Z,200.30
2023-02-16T06:24:33.972Z,272.37
2023-02-16T06:27:01.902Z,309.50
2023-02-16T06:29:29.930Z,268.77
2023-02-16T06:31:57.936Z,202.53
2023-02-16T06:34:27.063Z,262.57
2023-02-16T06:36:55.027Z,358.67
2023-02-16T06:39:23.036Z,164.60
2023-02-16T06:41:52.343Z,235.73
2023-02-16T06:44:20.436Z,245.40
2023-02-16T06:46:49.476Z,259.27
2023-02-16T06:49:19.767Z,142.43
2023-02-16T06:51:49.019Z,161.60
2023-02-16T06:54:17.628Z,311.57
2023-02-16T06:56:45.627Z,120.50
2023-02-16T06:59:16.023Z,197.70
2023-02-16T07:01:45.500Z,314.23
2023-02-16T07:04:13.925Z,240.13
2023-02-16T07:06:42.356Z,136.30
2023-02-16T07:09:12.407Z,295.70
2023-02-16T07:11:40.850Z,259.57
2023-02-16T07:14:08.778Z,274.73
2023-02-16T07:16:38.229Z,164.60
2023-02-16T07:19:06.880Z,217.93
2023-02-16T07:21:34.999Z,127.40
2023-02-16T07:24:03.684Z,225.00
2023-02-16T07:26:31.699Z,207.30
2023-02-16T07:28:59.784Z,230.03
2023-02-16T07:31:27.800Z,170.43
2023-02-16T07:33:58.118Z,87.07
2023-02-16T07:36:26.084Z,61.63
2023-02-16T07:38:54.946Z,58.53
2023-02-16T07:41:23.343Z,105.77
2023-02-16T07:43:51.322Z,117.40
2023-02-16T07:46:19.374Z,74.00
2023-02-16T07:48:48.797Z,100.13
2023-02-16T07:51:23.626Z,63.57
2023-02-16T07:53:52.137Z,52.27
2023-02-16T07:56:21.383Z,60.07
2023-02-16T07:58:49.396Z,69.80
2023-02-16T08:01:17.414Z,61.93
2023-02-16T08:03:45.395Z,66.47
2023-02-16T08:06:14.139Z,76.03
2023-02-16T08:08:43.706Z,90.53
2023-02-16T08:11:12.839Z,79.63
2023-02-16T08:13:40.958Z,90.90
2023-02-16T08:16:09.883Z,74.50
2023-02-16T08:18:37.994Z,65.37
2023-02-16T08:21:14.232Z,82.80
2023-02-16T08:23:47.532Z,89.97
2023-02-16T08:26:18.176Z,81.70
2023-02-16T08:28:46.941Z,80.60
2023-02-16T08:31:15.362Z,82.03
2023-02-16T08:33:43.921Z,89.00
2023-02-16T08:36:18.036Z,71.03
2023-02-16T08:38:50.365Z,65.60
2023-02-16T08:41:18.858Z,62.57
2023-02-16T08:43:46.893Z,60.80
2023-02-16T08:46:15.403Z,65.80
2023-02-16T08:48:45.129Z,50.50
2023-02-16T08:51:15.394Z,57.77
2023-02-16T08:53:43.405Z,52.17
2023-02-16T08:56:12.773Z,56.17
2023-02-16T08:58:40.978Z,57.90
2023-02-16T09:01:09.924Z,48.90
2023-02-16T09:03:41.152Z,51.70
2023-02-16T09:06:10.213Z,50.40
2023-02-16T09:08:38.432Z,45.40
2023-02-16T09:11:07.701Z,97.53
2023-02-16T09:13:37.789Z,43.60
2023-02-16T09:16:08.036Z,42.30
2023-02-16T09:18:36.753Z,48.30
2023-02-16T09:21:06.833Z,48.57
2023-02-16T09:23:35.961Z,40.47
2023-02-16T09:26:06.954Z,38.50
2023-02-16T09:28:37.442Z,228.80
2023-02-16T09:31:11.677Z,49.97
2023-02-16T09:33:40.508Z,35.60
2023-02-16T09:36:10.696Z,53.00
2023-02-16T09:38:40.068Z,64.90
2023-02-16T09:41:11.683Z,33.00
2023-02-16T09:43:50.323Z,33.20
2023-02-16T09:46:23.428Z,49.97
2023-02-16T09:48:52.801Z,42.57
2023-02-16T09:51:34.419Z,27.90
2023-02-16T09:54:14.256Z,55.07
2023-02-16T09:56:50.989Z,43.57
2023-02-16T09:59:44.125Z,48.17
2023-02-16T10:02:26.418Z,36.23
2023-02-16T10:05:04.701Z,26.23
2023-02-16T10:07:44.208Z,33.67
2023-02-16T10:10:16.440Z,29.50
2023-02-16T10:12:51.525Z,33.00
2023-02-16T10:15:24.699Z,30.63
2023-02-16T10:17:56.054Z,107.70
2023-02-16T10:20:32.549Z,38.27
2023-02-16T10:23:08.230Z,29.93
2023-02-16T10:25:42.093Z,26.20
2023-02-16T10:28:18.050Z,31.60
2023-02-16T10:30:54.508Z,212.67
2023-02-16T10:33:36.384Z,29.20
2023-02-16T10:36:16.385Z,53.40
2023-02-16T10:38:51.954Z,35.73
2023-02-16T10:41:32.827Z,26.20
2023-02-16T10:44:05.530Z,21.90
2023-02-16T10:46:43.010Z,26.40
2023-02-16T10:49:14.108Z,22.77
2023-02-16T10:51:46.135Z,36.33
2023-02-16T10:54:20.147Z,34.47
2023-02-16T10:56:54.122Z,34.03
2023-02-16T10:59:23.847Z,24.53
2023-02-16T11:01:54.283Z,29.40
2023-02-16T11:04:33.821Z,42.07
2023-02-16T11:07:04.972Z,47.57
2023-02-16T11:09:33.661Z,22.00
2023-02-16T11:12:02.947Z,59.10
2023-02-16T11:14:32.760Z,21.67
2023-02-16T11:17:11.004Z,18.10
2023-02-16T11:19:40.481Z,26.00
2023-02-16T11:22:25.377Z,21.20
2023-02-16T11:24:53.304Z,32.60
2023-02-16T11:27:23.252Z,46.90
2023-02-16T11:29:51.704Z,19.17
2023-02-16T11:32:22.596Z,17.93
2023-02-16T11:35:10.664Z,22.33
2023-02-16T11:37:41.537Z,29.73
2023-02-16T11:40:21.490Z,19.37
2023-02-16T11:42:52.015Z,30.57
2023-02-16T11:45:27.182Z,20.30
2023-02-16T11:47:57.656Z,13.80
2023-02-16T11:50:30.212Z,7.80
2023-02-16T11:53:14.743Z,8.77
2023-02-16T11:55:45.018Z,6.00
2023-02-16T11:58:22.569Z,6.33
2023-02-16T12:01:10.241Z,9.10
2023-02-16T12:04:04.314Z,7.80
2023-02-16T12:06:47.514Z,8.00
2023-02-16T12:09:26.833Z,7.47
2023-02-16T12:12:04.530Z,6.87
2023-02-16T12:14:42.828Z,5.60
2023-02-16T12:17:22.731Z,8.70
2023-02-16T12:19:56.491Z,8.43
2023-02-16T12:22:32.409Z,25.10
2023-02-16T12:25:14.014Z,6.27
2023-02-16T12:27:50.906Z,11.23
2023-02-16T12:30:39.192Z,7.47
2023-02-16T12:33:23.779Z,6.43
2023-02-16T12:36:09.725Z,6.90
2023-02-16T12:38:51.973Z,10.30
2023-02-16T12:41:30.998Z,6.60
2023-02-16T12:44:01.998Z,22.77
2023-02-16T12:46:33.878Z,17.17
2023-02-16T12:49:07.436Z,23.43
2023-02-16T12:51:40.302Z,8.80
2023-02-16T12:54:14.569Z,10.37
2023-02-16T12:56:46.797Z,10.53
2023-02-16T12:59:20.671Z,16.10
2023-02-16T13:01:53.037Z,26.73
2023-02-16T13:04:28.661Z,12.17
2023-02-16T13:07:06.483Z,14.97
2023-02-16T13:09:46.047Z,16.93
2023-02-16T13:12:25.712Z,20.30
2023-02-16T13:15:02.724Z,14.57
2023-02-16T13:17:35.132Z,17.70
2023-02-16T13:20:04.617Z,11.60
2023-02-16T13:22:47.685Z,15.10
2023-02-16T13:25:38.272Z,19.00
2023-02-16T13:28:23.600Z,15.40
2023-02-16T13:31:15.667Z,18.23
2023-02-16T13:34:06.085Z,18.97
2023-02-16T13:36:55.221Z,17.80
2023-02-16T13:39:37.582Z,45.63
2023-02-16T13:42:34.940Z,14.67
2023-02-16T13:45:05.936Z,15.03
2023-02-16T13:47:38.629Z,24.43
2023-02-16T13:50:09.539Z,14.87
2023-02-16T13:52:41.186Z,24.20
2023-02-16T13:55:24.068Z,13.90
2023-02-16T13:58:04.461Z,19.47
2023-02-16T14:00:36.543Z,21.27
2023-02-16T14:03:12.319Z,18.93
2023-02-16T14:05:42.304Z,16.63
2023-02-16T14:08:20.620Z,16.43
2023-02-16T14:11:10.098Z,17.30
2023-02-16T14:13:50.737Z,20.63
2023-02-16T14:16:33.895Z,16.80
2023-02-16T14:19:06.047Z,15.63
2023-02-16T14:21:38.785Z,22.67
2023-02-16T14:24:11.762Z,18.23
2023-02-16T14:26:54.693Z,16.90
2023-02-16T14:29:28.142Z,16.60
2023-02-16T14:32:02.013Z,15.77
2023-02-16T14:34:36.385Z,22.20
2023-02-16T14:37:30.191Z,16.40
2023-02-16T14:40:19.681Z,17.50
2023-02-16T14:43:02.665Z,17.87
2023-02-16T14:46:12.394Z,22.83
2023-02-16T14:49:19.319Z,13.43
2023-02-16T14:52:04.821Z,14.57
2023-02-16T14:55:17.618Z,17.87
2023-02-16T14:57:53.073Z,22.93
2023-02-16T15:00:29.590Z,34.97
2023-02-16T15:03:01.822Z,14.23
2023-02-16T15:05:32.924Z,25.93
2023-02-16T15:08:09.701Z,25.57
2023-02-16T15:10:40.364Z,31.27
2023-02-16T15:13:09.761Z,22.10
2023-02-16T15:15:46.177Z,36.53
2023-02-16T15:18:18.405Z,22.87
2023-02-16T15:20:49.120Z,37.27
2023-02-16T15:23:21.441Z,22.73
2023-02-16T15:25:59.278Z,23.27
2023-02-16T15:28:29.420Z,20.37
2023-02-16T15:30:59.433Z,20.17
2023-02-16T15:33:36.180Z,16.53
2023-02-16T15:36:07.967Z,15.93
2023-02-16T15:38:38.010Z,20.17
2023-02-16T15:41:08.081Z,26.10
2023-02-16T15:43:39.975Z,17.53
2023-02-16T15:46:15.859Z,18.90
2023-02-16T15:48:45.933Z,22.13
2023-02-16T15:51:18.997Z,17.53
2023-02-16T15:53:50.667Z,16.27
2023-02-16T15:56:29.433Z,29.50
2023-02-16T15:59:00.821Z,16.93
2023-02-16T16:01:33.839Z,20.27
2023-02-16T16:04:07.209Z,27.33
2023-02-16T16:06:38.081Z,31.07
2023-02-16T16:09:08.573Z,24.07
2023-02-16T16:11:38.139Z,26.70
2023-02-16T16:14:07.370Z,26.93
2023-02-16T16:16:36.075Z,25.50
2023-02-16T16:19:14.964Z,37.07
2023-02-16T16:21:54.101Z,32.23
2023-02-16T16:24:33.545Z,31.03
2023-02-16T16:27:04.733Z,35.37
2023-02-16T16:29:36.308Z,56.83
2023-02-16T16:32:06.222Z,24.23
2023-02-16T16:34:40.613Z,24.93
2023-02-16T16:37:25.103Z,24.37
2023-02-16T16:40:01.846Z,19.03
2023-02-16T16:42:31.085Z,16.80
2023-02-16T16:45:06.951Z,19.47
2023-02-16T16:47:38.696Z,21.87
2023-02-16T16:50:30.270Z,24.00
2023-02-16T16:52:58.967Z,70.60
2023-02-16T16:55:33.345Z,26.23
2023-02-16T16:58:03.295Z,25.97
2023-02-16T17:00:35.424Z,18.40
2023-02-16T17:03:04.675Z,25.53
2023-02-16T17:05:35.795Z,20.57
2023-02-16T17:08:03.901Z,38.33
2023-02-16T17:10:32.338Z,19.17
2023-02-16T17:13:02.933Z,13.63
2023-02-16T17:15:36.312Z,47.00
2023-02-16T17:18:05.199Z,28.40
2023-02-16T17:20:34.459Z,31.33
2023-02-16T17:23:04.821Z,25.07
2023-02-16T17:25:36.776Z,19.93
2023-02-16T17:28:06.245Z,24.03
2023-02-16T17:30:35.147Z,21.63
2023-02-16T17:33:03.613Z,24.63
2023-02-16T17:35:34.067Z,11.40
2023-02-16T17:38:08.248Z,23.80
2023-02-16T17:40:36.181Z,11.20
2023-02-16T17:43:07.780Z,12.37
2023-02-16T17:45:35.757Z,16.47
2023-02-16T17:48:03.732Z,15.40
2023-02-16T17:50:33.056Z,18.53
2023-02-16T17:53:02.872Z,22.63
2023-02-16T17:55:30.962Z,16.33
2023-02-16T17:57:59.101Z,15.73
2023-02-16T18:00:27.336Z,21.20
2023-02-16T18:02:55.251Z,21.10
2023-02-16T18:05:23.544Z,18.17
2023-02-16T18:07:52.297Z,17.93
2023-02-16T18:10:33.680Z,33.13
2023-02-16T18:13:01.923Z,24.80
2023-02-16T18:15:30.554Z,31.63
2023-02-16T18:17:59.072Z,36.07
2023-02-16T18:20:27.663Z,24.30
2023-02-16T18:22:55.582Z,26.43
2023-02-16T18:25:25.195Z,34.13
2023-02-16T18:27:53.796Z,22.90
2023-02-16T18:30:22.270Z,27.13
2023-02-16T18:32:50.851Z,16.33
2023-02-16T18:35:19.584Z,23.57
2023-02-16T18:37:47.916Z,22.80
2023-02-16T18:40:19.484Z,17.80
2023-02-16T18:42:48.926Z,19.93
2023-02-16T18:45:16.903Z,13.77
2023-02-16T18:47:45.334Z,16.53
2023-02-16T18:50:13.629Z,13.43
2023-02-16T18:52:43.286Z,18.47
2023-02-16T18:55:11.976Z,20.47
2023-02-16T18:57:40.095Z,13.00
2023-02-16T19:00:12.104Z,15.90
2023-02-16T19:02:40.796Z,19.33
2023-02-16T19:05:09.909Z,19.20
2023-02-16T19:07:37.891Z,16.83
2023-02-16T19:10:08.294Z,16.13
2023-02-16T19:12:36.298Z,17.23
2023-02-16T19:15:04.653Z,30.13
2023-02-16T19:17:34.209Z,24.13
2023-02-16T19:20:02.446Z,30.27
2023-02-16T19:22:30.635Z,18.90
2023-02-16T19:24:58.537Z,21.47
2023-02-16T19:27:26.489Z,23.77
2023-02-16T19:29:54.490Z,19.00
2023-02-16T19:32:22.446Z,17.93
2023-02-16T19:34:51.747Z,22.23
2023-02-16T19:37:20.107Z,19.70
2023-02-16T19:39:48.024Z,18.23
2023-02-16T19:42:16.046Z,26.70
2023-02-16T19:44:44.004Z,20.10
2023-02-16T19:47:12.019Z,21.13
2023-02-16T19:49:40.078Z,21.60
2023-02-16T19:52:09.586Z,18.63
2023-02-16T19:54:37.694Z,23.47
2023-02-16T19:57:06.301Z,19.67
2023-02-16T19:59:34.438Z,19.40
2023-02-16T20:02:02.356Z,21.30
2023-02-16T20:04:30.460Z,19.20
2023-02-16T20:06:58.431Z,23.50
2023-02-16T20:09:28.205Z,22.50
2023-02-16T20:11:56.119Z,25.53
2023-02-16T20:14:24.199Z,17.83
2023-02-16T20:16:52.156Z,18.77
2023-02-16T20:19:20.132Z,18.97
2023-02-16T20:21:48.033Z,19.77
2023-02-16T20:24:16.444Z,18.80
2023-02-16T20:26:48.992Z,16.73
2023-02-16T20:29:17.117Z,19.10
2023-02-16T20:31:49.781Z,19.00
2023-02-16T20:34:18.753Z,18.30
2023-02-16T20:36:46.675Z,20.33
2023-02-16T20:39:15.184Z,15.90
2023-02-16T20:41:43.177Z,18.23
2023-02-16T20:44:13.330Z,18.60
2023-02-16T20:46:42.365Z,14.67
2023-02-16T20:49:10.925Z,13.30
2023-02-16T20:51:38.983Z,17.87
2023-02-16T20:54:07.170Z,18.10
2023-02-16T20:56:35.352Z,17.70
2023-02-16T20:59:04.497Z,17.10
2023-02-16T21:01:37.466Z,17.70
2023-02-16T21:04:06.740Z,16.40
2023-02-16T21:06:35.264Z,17.77
2023-02-16T21:09:03.809Z,17.63
2023-02-16T21:11:31.906Z,18.00
2023-02-16T21:14:02.110Z,25.53
2023-02-16T21:16:30.481Z,28.20
2023-02-16T21:18:59.815Z,21.67
2023-02-16T21:21:27.865Z,19.10
2023-02-16T21:23:56.348Z,20.33
2023-02-16T21:26:26.207Z,21.83
2023-02-16T21:28:55.232Z,21.23
2023-02-16T21:31:25.118Z,19.13
2023-02-16T21:33:53.637Z,27.27
2023-02-16T21:36:25.100Z,32.20
2023-02-16T21:38:53.666Z,31.63
2023-02-16T21:41:25.343Z,28.77
2023-02-16T21:44:00.624Z,22.87
2023-02-16T21:46:30.394Z,19.57
2023-02-16T21:48:57.718Z,24.20
2023-02-16T21:51:29.597Z,19.03
2023-02-16T21:53:59.096Z,24.73
2023-02-16T21:56:36.038Z,27.83
2023-02-16T21:59:05.381Z,28.80
2023-02-16T22:01:35.838Z,25.63
2023-02-16T22:04:05.195Z,27.60
2023-02-16T22:06:36.260Z,28.03
2023-02-16T22:09:08.175Z,25.07
2023-02-16T22:11:36.395Z,26.90
2023-02-16T22:14:04.340Z,32.20
2023-02-16T22:16:33.438Z,32.00
2023-02-16T22:19:05.009Z,33.07
2023-02-16T22:21:38.249Z,27.50
2023-02-16T22:24:07.342Z,27.13
2023-02-16T22:26:36.488Z,31.10
2023-02-16T22:29:05.952Z,28.10
2023-02-16T22:31:34.391Z,24.83
2023-02-16T22:34:05.510Z,24.03
2023-02-16T22:36:33.500Z,34.13
2023-02-16T22:39:02.869Z,30.40
2023-02-16T22:41:31.210Z,25.60
2023-02-16T22:43:59.933Z,38.50
2023-02-16T22:46:29.182Z,28.33
2023-02-16T22:48:58.813Z,29.90
2023-02-16T22:51:29.476Z,29.13
2023-02-16T22:53:59.574Z,29.70
2023-02-16T22:56:29.705Z,26.90
2023-02-16T22:58:58.317Z,28.83
2023-02-16T23:01:28.120Z,28.23
2023-02-16T23:03:57.977Z,32.47
2023-02-16T23:06:28.531Z,26.90
2023-02-16T23:08:59.432Z,28.37
2023-02-16T23:11:29.167Z,29.30
2023-02-16T23:13:57.199Z,27.60
2023-02-16T23:16:26.544Z,32.10
2023-02-16T23:18:56.258Z,32.07
2023-02-16T23:21:26.218Z,29.30
2023-02-16T23:23:55.239Z,27.60
2023-02-16T23:26:24.824Z,31.67
2023-02-16T23:28:55.977Z,30.43
2023-02-16T23:31:24.545Z,31.27
2023-02-16T23:33:52.859Z,35.77
2023-02-16T23:36:20.793Z,27.47
2023-02-16T23:38:48.731Z,24.87
2023-02-16T23:41:17.341Z,29.43
2023-02-16T23:43:45.297Z,25.87
2023-02-16T23:46:14.659Z,27.80
2023-02-16T23:48:42.632Z,25.70
2023-02-16T23:51:12.058Z,26.13
2023-02-16T23:53:40.532Z,26.90
2023-02-16T23:56:12.404Z,27.70
2023-02-16T23:58:42.229Z,25.20
